Time;durP1;ratioP1;P1;durP2;ratioP2;P2;SDS_P1;SDS_P2;PMS_P1;PMS_P2;Temp;Humidity;BMP_temperature;BMP_pressure;BME280_temperature;BME280_humidity;BME280_pressure;Samples;Min_cycle;Max_cycle;Signal;HPM_P1;HPM_P2
2022/01/10 00:00:49;;;;;;;19.92;12.45;;;13.30;99.90;;;;;;5070506;28;20036;-65
2022/01/10 00:03:15;;;;;;;63.17;51.80;;;13.30;99.90;;;;;;5070626;28;20036;-65
2022/01/10 00:05:41;;;;;;;21.60;14.57;;;13.40;99.90;;;;;;5070789;28;20130;-65
2022/01/10 00:08:07;;;;;;;13.15;3.70;;;13.40;99.90;;;;;;5072783;28;20152;-66
2022/01/10 00:10:34;;;;;;;44.55;36.88;;;13.40;99.90;;;;;;5073677;28;20024;-65
2022/01/10 00:13:00;;;;;;;65.35;54.55;;;13.40;99.90;;;;;;5070015;28;20033;-65
2022/01/10 00:15:26;;;;;;;26.73;18.65;;;13.40;99.90;;;;;;5070443;28;20054;-65
2022/01/10 00:17:52;;;;;;;25.08;14.52;;;13.40;99.90;;;;;;5070571;28;20032;-63
2022/01/10 00:20:19;;;;;;;18.40;9.82;;;13.40;99.90;;;;;;5071023;28;20029;-65
2022/01/10 00:22:48;;;;;;;34.83;26.42;;;13.40;99.90;;;;;;5073709;28;20082;-65
2022/01/10 00:25:15;;;;;;;41.28;31.77;;;13.30;99.90;;;;;;5071960;28;20398;-64
2022/01/10 00:27:41;;;;;;;16.52;8.20;;;13.30;99.90;;;;;;5069480;28;20032;-65
2022/01/10 00:30:10;;;;;;;50.50;37.80;;;13.30;99.90;;;;;;5071295;28;20028;-66
2022/01/10 00:32:36;;;;;;;21.95;15.85;;;13.30;99.90;;;;;;5070581;28;20033;-66
2022/01/10 00:35:02;;;;;;;24.77;16.00;;;13.30;99.90;;;;;;5072790;28;20028;-65
2022/01/10 00:37:27;;;;;;;15.70;6.70;;;13.30;99.90;;;;;;5071371;28;20040;-65
2022/01/10 00:39:53;;;;;;;15.60;4.57;;;13.40;99.90;;;;;;5069834;28;20035;-65
2022/01/10 00:42:18;;;;;;;32.17;21.42;;;13.30;99.90;;;;;;5069728;28;20039;-66
2022/01/10 00:44:50;;;;;;;20.27;9.85;;;13.30;99.90;;;;;;5070060;28;20020;-65
2022/01/10 00:47:16;;;;;;;57.17;46.17;;;13.30;99.90;;;;;;5071234;28;20506;-66
2022/01/10 00:49:42;;;;;;;32.20;16.88;;;13.30;99.90;;;;;;5073073;28;20483;-65
2022/01/10 00:52:08;;;;;;;24.48;8.57;;;13.30;99.90;;;;;;5070184;28;20119;-65
2022/01/10 00:54:34;;;;;;;39.05;18.63;;;13.30;99.90;;;;;;5069662;28;20424;-65
2022/01/10 00:56:59;;;;;;;36.30;10.45;;;13.10;99.90;;;;;;5069588;28;20112;-65
2022/01/10 00:59:25;;;;;;;30.38;10.05;;;13.10;99.90;;;;;;5069793;28;20099;-65
2022/01/10 01:01:51;;;;;;;42.70;23.45;;;13.10;99.90;;;;;;5073827;28;20029;-65
2022/01/10 01:04:17;;;;;;;43.78;21.00;;;13.10;99.90;;;;;;5070972;28;20032;-64
2022/01/10 01:06:43;;;;;;;31.13;9.05;;;13.10;99.90;;;;;;5069457;28;20510;-65
2022/01/10 01:09:12;;;;;;;29.75;10.43;;;13.10;99.90;;;;;;5069983;28;20487;-65
2022/01/10 01:14:23;;;;;;;34.47;8.98;;;13.20;99.90;;;;;;5070988;28;22845;-64
2022/01/10 01:16:58;;;;;;;28.20;8.70;;;13.20;99.90;;;;;;5069165;28;20044;-65
2022/01/10 01:20:27;;;;;;;31.58;9.70;;;13.20;99.90;;;;;;5070440;28;20526;-65
2022/01/10 01:24:57;;;;;;;25.42;9.48;;;13.20;99.90;;;;;;5068989;28;20035;-63
2022/01/10 01:27:23;;;;;;;23.38;11.27;;;13.10;99.90;;;;;;5069111;28;20024;-64
2022/01/10 01:29:48;;;;;;;30.23;18.67;;;13.10;99.90;;;;;;5067740;28;20081;-65
2022/01/10 01:32:14;;;;;;;20.90;5.65;;;13.10;99.90;;;;;;5070517;28;20031;-65
2022/01/10 01:34:40;;;;;;;28.98;12.10;;;13.10;99.90;;;;;;5071652;28;20090;-65
2022/01/10 01:37:06;;;;;;;17.35;5.70;;;13.10;99.90;;;;;;5068712;28;20105;-64
2022/01/10 01:39:32;;;;;;;21.85;6.72;;;13.10;99.90;;;;;;5068207;28;20516;-64
2022/01/10 01:42:29;;;;;;;17.65;5.82;;;13.10;99.90;;;;;;5070167;28;20052;-65
2022/01/10 01:44:49;;;;;;;21.38;7.30;;;13.10;99.90;;;;;;5068745;28;20096;-64
2022/01/10 01:47:14;;;;;;;20.98;9.02;;;13.00;99.90;;;;;;5070264;28;20029;-65
2022/01/10 01:49:40;;;;;;;26.60;8.07;;;13.00;99.90;;;;;;5072268;28;20052;-64
2022/01/10 01:52:06;;;;;;;25.17;6.40;;;13.00;99.90;;;;;;5068509;28;20028;-66
2022/01/10 01:54:31;;;;;;;25.67;7.28;;;12.90;99.90;;;;;;5068147;28;20032;-64
2022/01/10 01:56:58;;;;;;;33.47;7.88;;;13.00;99.90;;;;;;5068576;28;20407;-65
2022/01/10 01:59:24;;;;;;;29.23;8.18;;;13.00;99.90;;;;;;5068475;28;20059;-66
2022/01/10 02:01:50;;;;;;;39.80;15.02;;;13.00;99.90;;;;;;5072954;28;20020;-65
2022/01/10 02:04:16;;;;;;;34.40;6.97;;;13.00;99.90;;;;;;5068345;28;20035;-65
2022/01/10 02:06:41;;;;;;;31.35;5.80;;;13.00;99.90;;;;;;5068257;28;20399;-63
2022/01/10 02:09:07;;;;;;;31.95;7.25;;;13.00;99.90;;;;;;5067853;28;20028;-64
2022/01/10 02:11:33;;;;;;;35.03;7.20;;;13.10;99.90;;;;;;5068804;28;20040;-63
2022/01/10 02:14:00;;;;;;;27.30;5.70;;;13.00;99.90;;;;;;5070842;28;20099;-64
2022/01/10 02:16:39;;;;;;;28.95;7.28;;;13.00;99.90;;;;;;5070929;28;20037;-65
2022/01/10 02:19:04;;;;;;;28.10;5.20;;;13.00;99.90;;;;;;5068878;28;20479;-63
2022/01/10 02:21:30;;;;;;;30.75;10.07;;;13.00;99.90;;;;;;5069464;28;20123;-65
2022/01/10 02:23:57;;;;;;;30.85;8.02;;;12.90;99.90;;;;;;5067763;28;20028;-65
2022/01/10 02:26:23;;;;;;;26.58;6.65;;;12.90;99.90;;;;;;5053876;28;20025;-65
2022/01/10 02:28:49;;;;;;;28.67;6.43;;;12.90;99.90;;;;;;5067530;28;20032;-65
2022/01/10 02:31:15;;;;;;;24.55;5.78;;;12.80;99.90;;;;;;5067796;28;20028;-65
2022/01/10 02:33:40;;;;;;;36.67;16.23;;;12.70;99.90;;;;;;5067909;28;20127;-65
2022/01/10 02:36:23;;;;;;;26.20;8.75;;;12.80;99.90;;;;;;5067931;28;20053;-63
2022/01/10 02:38:53;;;;;;;32.55;8.40;;;12.80;99.90;;;;;;5067696;28;20057;-64
2022/01/10 02:41:27;;;;;;;28.58;9.23;;;12.70;99.90;;;;;;5069059;28;20056;-64
2022/01/10 02:43:55;;;;;;;40.90;20.25;;;12.80;99.90;;;;;;5067766;28;20068;-65
2022/01/10 02:46:21;;;;;;;32.17;12.38;;;12.70;99.90;;;;;;5068751;28;20127;-65
2022/01/10 02:48:47;;;;;;;32.97;15.38;;;12.70;99.90;;;;;;5067646;28;20035;-65
2022/01/10 02:51:12;;;;;;;34.10;8.27;;;12.70;99.90;;;;;;5067521;28;20115;-64
2022/01/10 02:53:38;;;;;;;27.23;8.20;;;12.60;99.90;;;;;;5067833;28;20537;-64
2022/01/10 02:56:04;;;;;;;42.92;22.02;;;12.60;99.90;;;;;;5069840;28;20385;-64
2022/01/10 02:58:30;;;;;;;30.52;7.07;;;12.60;99.90;;;;;;5069300;28;20032;-64
2022/01/10 03:00:56;;;;;;;47.88;14.77;;;12.70;99.90;;;;;;5068900;28;20032;-65
2022/01/10 03:03:21;;;;;;;37.42;12.85;;;12.60;99.90;;;;;;5067772;28;20063;-65
2022/01/10 03:05:47;;;;;;;33.50;9.98;;;12.70;99.90;;;;;;5068942;28;20025;-65
2022/01/10 03:08:13;;;;;;;43.33;16.40;;;12.70;99.90;;;;;;5069347;28;20202;-65
2022/01/10 03:10:38;;;;;;;36.63;9.93;;;12.70;99.90;;;;;;5070380;28;20052;-64
2022/01/10 03:13:04;;;;;;;40.70;13.20;;;12.60;99.90;;;;;;5067323;28;20028;-65
2022/01/10 03:15:30;;;;;;;36.53;12.38;;;12.60;99.90;;;;;;5067256;28;20110;-66
2022/01/10 03:17:56;;;;;;;38.58;9.90;;;12.70;99.90;;;;;;5066158;28;20029;-65
2022/01/10 03:20:25;;;;;;;44.05;11.57;;;12.70;99.90;;;;;;5051566;28;20462;-65
2022/01/10 03:22:52;;;;;;;42.40;10.25;;;12.70;99.90;;;;;;5067619;28;20108;-64
2022/01/10 03:25:18;;;;;;;60.95;32.38;;;12.70;99.90;;;;;;5067109;28;20098;-65
2022/01/10 03:27:44;;;;;;;57.20;21.25;;;12.70;99.90;;;;;;5067320;28;20064;-65
2022/01/10 03:30:10;;;;;;;47.60;14.82;;;12.70;99.90;;;;;;5067194;28;20442;-65
2022/01/10 03:32:37;;;;;;;49.83;14.43;;;12.70;99.90;;;;;;5067242;28;20029;-64
2022/01/10 03:35:05;;;;;;;107.70;37.22;;;12.70;99.90;;;;;;5069222;28;20103;-65
2022/01/10 03:37:31;;;;;;;219.05;100.20;;;12.70;99.90;;;;;;5069129;28;20443;-65
2022/01/10 03:39:57;;;;;;;112.47;39.38;;;12.70;99.90;;;;;;5068426;28;20031;-64
2022/01/10 03:42:22;;;;;;;76.85;26.67;;;12.80;99.90;;;;;;5067197;28;20115;-64
2022/01/10 03:44:48;;;;;;;95.70;43.70;;;12.80;99.90;;;;;;5068976;28;20088;-65
2022/01/10 03:47:16;;;;;;;139.77;70.60;;;12.80;99.90;;;;;;5068683;28;20033;-65
2022/01/10 03:49:42;;;;;;;140.63;67.45;;;12.80;99.90;;;;;;5070056;28;20453;-65
2022/01/10 03:52:08;;;;;;;89.13;33.88;;;12.80;99.90;;;;;;5067002;28;20749;-65
2022/01/10 03:54:33;;;;;;;46.53;14.27;;;12.80;99.90;;;;;;5067137;28;20021;-64
2022/01/10 03:56:59;;;;;;;98.45;65.32;;;12.80;99.90;;;;;;5066999;28;20040;-66
2022/01/10 03:59:25;;;;;;;86.35;54.63;;;12.70;99.90;;;;;;5066932;28;20043;-65
2022/01/10 04:01:52;;;;;;;49.60;15.05;;;12.80;99.90;;;;;;5071184;28;20023;-63
2022/01/10 04:04:17;;;;;;;53.40;10.80;;;12.80;99.90;;;;;;5066607;28;20028;-65
2022/01/10 04:06:44;;;;;;;78.70;37.60;;;12.70;99.90;;;;;;5065748;28;20085;-64
2022/01/10 04:09:10;;;;;;;128.48;71.97;;;12.80;99.90;;;;;;5067064;28;20032;-65
2022/01/10 04:11:36;;;;;;;183.90;117.95;;;12.80;99.90;;;;;;5065743;28;20025;-65
2022/01/10 04:14:02;;;;;;;157.23;85.38;;;12.70;99.90;;;;;;5071828;28;20028;-64
2022/01/10 04:16:28;;;;;;;92.88;35.75;;;12.80;99.90;;;;;;5073177;28;20402;-65
2022/01/10 04:18:54;;;;;;;88.45;38.67;;;12.80;99.90;;;;;;5071572;28;20033;-65
2022/01/10 04:21:20;;;;;;;145.57;77.40;;;12.80;99.90;;;;;;5070391;28;20154;-65
2022/01/10 04:23:46;;;;;;;168.30;106.97;;;12.80;99.90;;;;;;5071968;28;20490;-63
2022/01/10 04:26:11;;;;;;;114.72;65.38;;;12.70;99.90;;;;;;5072162;28;20028;-63
2022/01/10 04:28:37;;;;;;;94.63;44.25;;;12.80;99.90;;;;;;5072698;28;20461;-63
2022/01/10 04:31:04;;;;;;;120.22;40.35;;;12.90;99.90;;;;;;5070294;28;20115;-65
2022/01/10 04:33:30;;;;;;;204.73;99.35;;;12.90;99.90;;;;;;5070072;28;20048;-65
2022/01/10 04:35:57;;;;;;;108.80;46.22;;;12.80;99.90;;;;;;5070164;28;20082;-65
2022/01/10 04:38:24;;;;;;;84.30;38.42;;;12.80;99.90;;;;;;5054432;28;20036;-65
2022/01/10 04:40:50;;;;;;;96.88;41.38;;;12.80;99.90;;;;;;5073836;28;20079;-65
2022/01/10 04:43:16;;;;;;;140.88;80.80;;;12.80;99.90;;;;;;5069860;28;20071;-63
2022/01/10 04:45:42;;;;;;;77.38;26.42;;;12.90;99.90;;;;;;5070113;28;20025;-64
2022/01/10 04:48:08;;;;;;;117.68;57.90;;;12.90;99.90;;;;;;5070054;28;20545;-65
2022/01/10 04:53:03;;;;;;;78.93;40.92;;;12.80;99.90;;;;;;5071994;28;20379;-64
2022/01/10 04:55:29;;;;;;;72.22;32.95;;;12.90;99.90;;;;;;5071333;28;20031;-65
2022/01/10 04:57:55;;;;;;;69.05;29.15;;;12.90;99.90;;;;;;5071231;28;20041;-64
2022/01/10 05:00:21;;;;;;;56.05;17.35;;;12.90;99.90;;;;;;5069549;28;20048;-65
2022/01/10 05:02:50;;;;;;;86.07;42.45;;;12.90;99.90;;;;;;5070892;28;20028;-65
2022/01/10 05:05:16;;;;;;;60.20;23.25;;;12.80;99.90;;;;;;5071307;28;20085;-64
2022/01/10 05:07:41;;;;;;;68.82;29.98;;;12.80;99.90;;;;;;5072712;28;20033;-65
2022/01/10 05:10:08;;;;;;;66.35;22.45;;;12.90;99.90;;;;;;5069327;28;20570;-65
2022/01/10 05:12:33;;;;;;;80.95;42.25;;;12.90;99.90;;;;;;5069739;28;20024;-65
2022/01/10 05:14:59;;;;;;;65.32;26.35;;;12.80;99.90;;;;;;5069420;28;20044;-65
2022/01/10 05:17:25;;;;;;;50.22;13.55;;;12.80;99.90;;;;;;5069393;28;20127;-64
2022/01/10 05:19:51;;;;;;;56.50;19.00;;;12.70;99.90;;;;;;5068923;28;20021;-65
2022/01/10 05:22:16;;;;;;;51.90;11.13;;;12.70;99.90;;;;;;5069336;28;20047;-64
2022/01/10 05:24:42;;;;;;;90.13;42.72;;;12.70;99.90;;;;;;5068240;28;20036;-64
2022/01/10 05:27:08;;;;;;;80.47;38.75;;;12.70;99.90;;;;;;5069110;28;20024;-64
2022/01/10 05:29:34;;;;;;;213.07;158.73;;;12.70;99.90;;;;;;5070967;28;20029;-64
2022/01/10 05:31:59;;;;;;;76.40;36.72;;;12.60;99.90;;;;;;5071390;28;20025;-64
2022/01/10 05:34:25;;;;;;;81.75;42.38;;;12.70;99.90;;;;;;5070245;28;20040;-64
2022/01/10 05:36:51;;;;;;;65.03;28.40;;;12.70;99.90;;;;;;5070424;28;20499;-65
2022/01/10 05:39:17;;;;;;;77.07;35.10;;;12.70;99.90;;;;;;5068645;28;20039;-65
2022/01/10 05:41:43;;;;;;;63.33;22.90;;;12.70;99.90;;;;;;5070617;28;20124;-64
2022/01/10 05:44:09;;;;;;;74.32;39.75;;;12.80;99.90;;;;;;5071327;28;20078;-65
2022/01/10 05:46:37;;;;;;;62.80;29.73;;;12.70;99.90;;;;;;5070317;28;20040;-65
2022/01/10 05:49:04;;;;;;;48.70;18.58;;;12.60;99.90;;;;;;5068626;28;20025;-64
2022/01/10 05:51:37;;;;;;;39.47;14.75;;;12.70;99.90;;;;;;5068645;28;20036;-64
2022/01/10 05:54:04;;;;;;;81.43;49.93;;;12.70;99.90;;;;;;5068735;28;20097;-64
2022/01/10 05:56:32;;;;;;;59.22;29.67;;;12.70;99.90;;;;;;5068857;28;20083;-64
2022/01/10 05:59:01;;;;;;;48.53;21.88;;;12.60;99.90;;;;;;5072181;28;20551;-65
2022/01/10 06:01:26;;;;;;;54.97;26.08;;;12.60;99.90;;;;;;5070838;28;20097;-65
2022/01/10 06:03:52;;;;;;;57.38;25.77;;;12.70;99.90;;;;;;5068235;28;20477;-64
2022/01/10 06:06:18;;;;;;;55.47;26.75;;;12.70;99.90;;;;;;5068732;28;20032;-64
2022/01/10 06:08:44;;;;;;;84.72;48.75;;;12.70;99.90;;;;;;5069715;28;20027;-65
2022/01/10 06:11:10;;;;;;;124.88;76.25;;;12.70;99.90;;;;;;5070283;28;20414;-65
2022/01/10 06:13:36;;;;;;;48.05;23.00;;;12.70;99.90;;;;;;5070702;28;20051;-64
2022/01/10 06:16:02;;;;;;;35.53;13.48;;;12.60;99.90;;;;;;5069103;28;20090;-65
2022/01/10 06:18:28;;;;;;;44.80;13.07;;;12.60;99.90;;;;;;5068106;28;20078;-65
2022/01/10 06:20:54;;;;;;;48.35;19.60;;;12.60;99.90;;;;;;5069877;28;20028;-64
2022/01/10 06:23:20;;;;;;;50.72;15.57;;;12.70;99.90;;;;;;5068769;28;20528;-65
2022/01/10 06:25:46;;;;;;;45.03;8.77;;;12.70;99.90;;;;;;5071464;28;20108;-64
2022/01/10 06:28:12;;;;;;;48.03;14.65;;;12.70;99.90;;;;;;5068313;28;20475;-64
2022/01/10 06:30:37;;;;;;;46.10;12.88;;;12.70;99.90;;;;;;5067594;28;20036;-64
2022/01/10 06:33:03;;;;;;;44.72;10.70;;;12.70;99.90;;;;;;5067905;28;20113;-65
2022/01/10 06:35:29;;;;;;;45.85;14.63;;;12.60;99.90;;;;;;5067711;28;20033;-64
2022/01/10 06:37:55;;;;;;;44.90;10.00;;;12.60;99.90;;;;;;5071521;28;20091;-64
2022/01/10 06:40:21;;;;;;;42.15;9.02;;;12.60;99.90;;;;;;5068379;28;20028;-65
2022/01/10 06:42:47;;;;;;;59.55;16.55;;;12.50;99.90;;;;;;5067622;28;20103;-65
2022/01/10 06:45:13;;;;;;;57.78;12.43;;;12.60;99.90;;;;;;5067418;28;20031;-65
2022/01/10 06:47:39;;;;;;;45.72;13.02;;;12.60;99.90;;;;;;5069538;28;20395;-65
2022/01/10 06:50:06;;;;;;;62.88;18.80;;;12.50;99.90;;;;;;5069898;28;20084;-64
2022/01/10 06:52:32;;;;;;;85.32;44.90;;;12.50;99.90;;;;;;5069434;28;20033;-65
2022/01/10 06:54:59;;;;;;;66.35;29.75;;;12.50;99.90;;;;;;5068952;28;20425;-65
2022/01/10 06:57:26;;;;;;;63.42;29.73;;;12.50;99.90;;;;;;5067628;28;20029;-65
2022/01/10 06:59:52;;;;;;;63.80;15.93;;;12.60;99.90;;;;;;5068920;28;20016;-64
2022/01/10 07:02:17;;;;;;;71.10;35.60;;;12.60;99.90;;;;;;5068956;28;20081;-64
2022/01/10 07:04:44;;;;;;;65.68;25.25;;;12.50;99.90;;;;;;5070562;28;20032;-65
2022/01/10 07:07:09;;;;;;;69.40;29.85;;;12.60;99.90;;;;;;5067735;28;20107;-65
2022/01/10 07:09:35;;;;;;;51.97;11.55;;;12.60;99.90;;;;;;5067571;28;20103;-63
2022/01/10 07:12:02;;;;;;;55.92;14.82;;;12.60;99.90;;;;;;5066809;28;20024;-67
2022/01/10 07:14:29;;;;;;;77.15;37.47;;;12.60;99.90;;;;;;5067338;28;20056;-65
2022/01/10 07:16:55;;;;;;;65.60;27.83;;;12.60;99.90;;;;;;5071315;28;20079;-65
2022/01/10 07:19:22;;;;;;;58.03;17.75;;;12.50;99.90;;;;;;5069403;28;20483;-65
2022/01/10 07:21:48;;;;;;;51.85;12.13;;;12.60;99.90;;;;;;5067436;28;20103;-65
2022/01/10 07:24:15;;;;;;;57.40;17.52;;;12.50;99.90;;;;;;5067125;28;20042;-65
2022/01/10 07:26:40;;;;;;;54.83;12.90;;;12.60;99.90;;;;;;5068489;28;20021;-64
2022/01/10 07:29:07;;;;;;;51.33;10.60;;;12.60;99.90;;;;;;5069572;28;20376;-65
2022/01/10 07:31:33;;;;;;;80.13;31.15;;;12.60;99.90;;;;;;5069268;28;20082;-65
2022/01/10 07:33:58;;;;;;;57.17;10.55;;;12.50;99.90;;;;;;5068556;28;20527;-65
2022/01/10 07:36:24;;;;;;;48.20;9.65;;;12.50;99.90;;;;;;5066958;28;20024;-65
2022/01/10 07:38:50;;;;;;;57.35;11.93;;;12.60;99.90;;;;;;5068740;28;20036;-64
2022/01/10 07:41:16;;;;;;;42.03;9.10;;;12.50;99.90;;;;;;5068683;28;20028;-65
2022/01/10 07:43:41;;;;;;;61.05;24.80;;;12.50;99.90;;;;;;5071320;28;20508;-65
2022/01/10 07:46:08;;;;;;;47.88;9.48;;;12.50;99.90;;;;;;5067143;28;20047;-65
2022/01/10 07:48:36;;;;;;;59.97;17.25;;;12.50;99.90;;;;;;5069544;28;20104;-65
2022/01/10 07:51:03;;;;;;;48.63;9.48;;;12.50;99.90;;;;;;5070702;28;20556;-65
2022/01/10 07:53:29;;;;;;;44.47;9.05;;;12.60;99.90;;;;;;5071083;28;20064;-65
2022/01/10 07:55:55;;;;;;;51.75;9.05;;;12.50;99.90;;;;;;5074744;28;20031;-64
2022/01/10 07:58:21;;;;;;;57.75;20.30;;;12.50;99.90;;;;;;5072858;28;20038;-65
2022/01/10 08:00:47;;;;;;;44.47;7.70;;;12.50;99.90;;;;;;5071139;28;20028;-65
2022/01/10 08:03:13;;;;;;;55.17;12.18;;;12.50;99.90;;;;;;5070675;28;20035;-64
2022/01/10 08:05:38;;;;;;;55.72;11.10;;;12.50;99.90;;;;;;5072072;28;20510;-65
2022/01/10 08:08:04;;;;;;;55.60;14.32;;;12.50;99.90;;;;;;5072783;28;20024;-65
2022/01/10 08:10:30;;;;;;;58.42;21.38;;;12.60;99.90;;;;;;5072014;28;20025;-65
2022/01/10 08:12:56;;;;;;;42.00;9.55;;;12.60;99.90;;;;;;5072228;28;20039;-65
2022/01/10 08:15:22;;;;;;;49.03;15.13;;;12.60;99.90;;;;;;5070363;28;20020;-64
2022/01/10 08:17:48;;;;;;;45.90;14.07;;;12.70;99.90;;;;;;5072119;28;20112;-65
2022/01/10 08:20:14;;;;;;;73.57;32.13;;;12.60;99.90;;;;;;5072151;28;20043;-65
2022/01/10 08:22:40;;;;;;;54.42;18.75;;;12.60;99.90;;;;;;5073075;28;20042;-64
2022/01/10 08:25:07;;;;;;;79.68;32.85;;;12.60;99.90;;;;;;5069830;28;20020;-64
2022/01/10 08:27:34;;;;;;;55.33;14.23;;;12.60;99.90;;;;;;5070263;28;20040;-64
2022/01/10 08:30:03;;;;;;;55.65;14.77;;;12.70;99.90;;;;;;5070203;28;20021;-65
2022/01/10 08:32:29;;;;;;;68.40;26.90;;;12.70;99.90;;;;;;5070099;28;20399;-65
2022/01/10 08:34:55;;;;;;;55.78;16.98;;;12.60;99.90;;;;;;5074419;28;20029;-64
2022/01/10 08:37:21;;;;;;;47.10;15.05;;;12.60;99.90;;;;;;5070600;28;20491;-65
2022/01/10 08:39:49;;;;;;;60.03;20.38;;;12.60;99.90;;;;;;5070165;28;20155;-65
2022/01/10 08:42:19;;;;;;;73.75;32.60;;;12.50;99.90;;;;;;5070128;28;20028;-64
2022/01/10 08:44:45;;;;;;;131.18;79.07;;;12.60;99.90;;;;;;5071289;28;20480;-65
2022/01/10 08:47:10;;;;;;;143.75;92.60;;;12.70;99.90;;;;;;5071645;28;20016;-65
2022/01/10 08:49:36;;;;;;;117.95;67.45;;;12.70;99.90;;;;;;5071601;28;20050;-64
2022/01/10 08:52:03;;;;;;;313.17;246.07;;;12.70;99.90;;;;;;5071102;28;20028;-65
2022/01/10 08:54:28;;;;;;;126.25;74.28;;;12.60;99.90;;;;;;5069242;28;20576;-65
2022/01/10 08:56:54;;;;;;;169.00;106.85;;;12.70;99.90;;;;;;5071203;28;20070;-65
2022/01/10 08:59:20;;;;;;;108.75;70.05;;;12.60;99.90;;;;;;5070468;28;20369;-65
2022/01/10 09:01:46;;;;;;;92.50;50.72;;;12.60;99.90;;;;;;5071685;28;20379;-65
2022/01/10 09:04:16;;;;;;;45.88;14.48;;;12.70;99.90;;;;;;5069062;28;20028;-65
2022/01/10 09:06:50;;;;;;;62.30;21.10;;;12.60;99.90;;;;;;5068464;28;20036;-65
2022/01/10 09:09:16;;;;;;;95.88;81.47;;;12.70;99.90;;;;;;5068985;28;20024;-65
2022/01/10 09:11:42;;;;;;;64.20;29.40;;;12.70;99.90;;;;;;5070075;28;20522;-65
2022/01/10 09:14:09;;;;;;;57.53;20.70;;;12.60;99.90;;;;;;5071792;28;20024;-65
2022/01/10 09:16:35;;;;;;;57.35;24.20;;;12.60;99.90;;;;;;5070610;28;20576;-66
2022/01/10 09:19:02;;;;;;;73.68;38.90;;;12.60;99.90;;;;;;5069414;28;20063;-65
2022/01/10 09:21:27;;;;;;;133.23;119.40;;;12.70;99.90;;;;;;5069255;28;20498;-66
2022/01/10 09:23:53;;;;;;;230.10;207.93;;;12.60;99.90;;;;;;5070137;28;20144;-66
2022/01/10 09:26:19;;;;;;;108.45;96.68;;;12.70;99.90;;;;;;5069787;28;20519;-65
2022/01/10 09:28:45;;;;;;;52.58;19.33;;;12.80;99.90;;;;;;5071957;28;20036;-64
2022/01/10 09:31:12;;;;;;;57.47;19.60;;;12.70;99.90;;;;;;5070191;28;20031;-66
2022/01/10 09:33:38;;;;;;;50.40;14.88;;;12.70;99.90;;;;;;5069324;28;20052;-66
2022/01/10 09:36:05;;;;;;;48.17;13.75;;;12.70;99.90;;;;;;5070467;28;20040;-66
2022/01/10 09:38:30;;;;;;;51.53;12.20;;;12.70;99.90;;;;;;5068762;28;20402;-66
2022/01/10 09:40:56;;;;;;;46.28;8.43;;;12.70;99.90;;;;;;5072576;28;20017;-66
2022/01/10 09:43:22;;;;;;;107.90;73.18;;;12.80;99.90;;;;;;5070910;28;20024;-65
2022/01/10 09:45:50;;;;;;;364.20;326.17;;;12.80;99.90;;;;;;5068664;28;20590;-65
2022/01/10 09:48:16;;;;;;;112.00;81.38;;;12.90;99.90;;;;;;5068699;28;20440;-64
2022/01/10 09:50:42;;;;;;;153.10;124.10;;;12.80;99.90;;;;;;5068727;28;20033;-65
2022/01/10 09:53:08;;;;;;;70.70;34.35;;;12.90;99.90;;;;;;5070751;28;20016;-66
2022/01/10 09:55:34;;;;;;;144.98;107.45;;;12.90;99.90;;;;;;5069967;28;20139;-66
2022/01/10 09:58:03;;;;;;;404.17;348.73;;;13.00;99.90;;;;;;5068171;28;20508;-65
2022/01/10 10:00:30;;;;;;;117.22;83.85;;;13.00;99.90;;;;;;5068269;28;20032;-66
2022/01/10 10:02:55;;;;;;;206.15;158.75;;;13.00;99.90;;;;;;5070273;28;20494;-65
2022/01/10 10:05:21;;;;;;;175.20;121.70;;;13.00;99.90;;;;;;5069046;28;20021;-65
2022/01/10 10:07:48;;;;;;;555.53;457.60;;;13.00;99.90;;;;;;5071353;28;20032;-66
2022/01/10 10:10:14;;;;;;;116.10;69.60;;;13.00;99.90;;;;;;5069139;28;20115;-66
2022/01/10 10:12:43;;;;;;;98.00;52.65;;;12.90;99.90;;;;;;5068553;28;20036;-66
2022/01/10 10:15:12;;;;;;;139.80;95.43;;;12.90;99.90;;;;;;5069688;28;20375;-66
2022/01/10 10:17:39;;;;;;;150.68;101.75;;;12.90;99.90;;;;;;5068085;28;20037;-66
2022/01/10 10:20:17;;;;;;;485.67;394.52;;;13.00;99.90;;;;;;5070247;28;20080;-65
2022/01/10 10:22:46;;;;;;;181.10;128.35;;;13.00;99.90;;;;;;5070625;28;20035;-66
2022/01/10 10:25:13;;;;;;;116.05;72.18;;;13.00;99.90;;;;;;5069488;28;20020;-66
2022/01/10 10:27:45;;;;;;;316.38;245.05;;;13.00;99.90;;;;;;5068267;28;20448;-64
2022/01/10 10:30:14;;;;;;;308.97;221.90;;;13.00;99.90;;;;;;5067920;28;20439;-66
2022/01/10 10:32:39;;;;;;;546.08;430.00;;;13.10;99.90;;;;;;5067971;28;20052;-66
2022/01/10 10:35:07;;;;;;;148.75;92.55;;;13.10;99.90;;;;;;5070321;28;20425;-65
2022/01/10 10:37:41;;;;;;;126.38;77.93;;;13.10;99.90;;;;;;5069972;28;20028;-66
2022/01/10 10:40:11;;;;;;;158.90;105.25;;;13.10;99.90;;;;;;5067648;28;20032;-66
2022/01/10 10:42:42;;;;;;;125.68;71.82;;;13.00;99.90;;;;;;5069106;28;20029;-66
2022/01/10 10:45:11;;;;;;;140.68;91.20;;;13.10;99.90;;;;;;5067451;28;20406;-66
2022/01/10 10:47:40;;;;;;;314.65;223.18;;;13.20;99.90;;;;;;5069824;28;20103;-66
2022/01/10 10:50:07;;;;;;;171.50;103.90;;;13.10;99.90;;;;;;5069993;28;20391;-66
2022/01/10 10:52:34;;;;;;;195.25;124.97;;;13.10;99.90;;;;;;5069268;28;20020;-65
2022/01/10 10:55:05;;;;;;;144.52;82.40;;;13.20;99.90;;;;;;5069570;28;20040;-66
2022/01/10 10:57:32;;;;;;;159.77;95.85;;;13.10;99.90;;;;;;5067794;28;20119;-66
2022/01/10 10:59:59;;;;;;;422.88;309.33;;;13.10;99.90;;;;;;5067522;28;20552;-66
2022/01/10 11:02:26;;;;;;;216.32;142.88;;;13.20;99.90;;;;;;5052097;28;20020;-64
2022/01/10 11:04:51;;;;;;;91.95;48.72;;;13.20;99.90;;;;;;5067400;28;20017;-65
2022/01/10 11:07:21;;;;;;;104.47;58.50;;;13.20;99.90;;;;;;5067634;28;20043;-66
2022/01/10 11:09:48;;;;;;;573.17;413.60;;;13.20;99.90;;;;;;5067407;28;20127;-66
2022/01/10 11:12:16;;;;;;;1999.90;999.90;;;13.30;99.90;;;;;;5067383;28;20542;-65
2022/01/10 11:14:43;;;;;;;1999.90;999.90;;;15.30;99.90;;;;;;5067781;28;20031;-64
2022/01/10 11:17:19;;;;;;;1935.70;999.90;;;17.50;99.90;;;;;;5069812;28;20035;-65
2022/01/10 11:20:10;;;;;;;1408.70;924.90;;;17.20;99.90;;;;;;5070130;28;20110;-65
2022/01/10 11:22:50;;;;;;;875.42;667.67;;;17.10;99.90;;;;;;5070135;28;20495;-65
2022/01/10 11:25:22;;;;;;;642.92;490.00;;;16.80;99.90;;;;;;5070951;28;20032;-64
2022/01/10 11:27:48;;;;;;;304.35;197.73;;;16.70;99.90;;;;;;5072868;28;20032;-65
2022/01/10 11:30:40;;;;;;;266.58;162.52;;;16.30;99.90;;;;;;5071342;28;20032;-64
2022/01/10 11:33:15;;;;;;;280.17;143.50;;;16.70;99.90;;;;;;5072441;28;20055;-64
2022/01/10 11:35:43;;;;;;;252.18;114.93;;;16.80;99.90;;;;;;5071572;28;20392;-64
2022/01/10 11:38:17;;;;;;;236.00;103.97;;;16.70;99.90;;;;;;5073760;28;20090;-64
2022/01/10 11:40:43;;;;;;;143.00;62.70;;;16.40;99.90;;;;;;5074046;28;20097;-65
2022/01/10 11:43:25;;;;;;;249.02;112.05;;;17.30;99.90;;;;;;5071071;28;20107;-64
2022/01/10 11:46:05;;;;;;;407.73;191.93;;;17.60;99.90;;;;;;5071249;28;20078;-65
2022/01/10 11:48:49;;;;;;;256.75;113.93;;;17.20;99.90;;;;;;5071023;28;20040;-63
2022/01/10 11:51:21;;;;;;;227.43;100.03;;;16.70;99.90;;;;;;5071026;28;20047;-64
2022/01/10 11:53:53;;;;;;;229.63;106.20;;;17.50;99.90;;;;;;5070844;28;20036;-66
2022/01/10 11:56:29;;;;;;;350.58;188.93;;;16.70;99.90;;;;;;5071789;28;20033;-65
2022/01/10 11:59:10;;;;;;;286.35;150.60;;;14.70;99.90;;;;;;5071128;28;20439;-66
2022/01/10 12:01:58;;;;;;;175.93;94.50;;;14.20;99.90;;;;;;5072882;28;20063;-66
2022/01/10 12:04:29;;;;;;;519.13;335.60;;;14.10;99.90;;;;;;5072330;28;20082;-67
2022/01/10 12:06:55;;;;;;;113.15;55.72;;;14.00;99.90;;;;;;5070830;28;20115;-66
2022/01/10 12:09:22;;;;;;;226.32;125.53;;;13.80;99.90;;;;;;5070455;28;20055;-66
2022/01/10 12:11:51;;;;;;;145.40;78.70;;;13.70;99.90;;;;;;5072426;28;20025;-65
2022/01/10 12:14:18;;;;;;;77.60;39.92;;;13.50;99.90;;;;;;5071648;28;20044;-65
2022/01/10 12:16:43;;;;;;;195.00;130.48;;;13.30;99.90;;;;;;5073095;28;20032;-66
2022/01/10 12:19:10;;;;;;;96.18;53.90;;;13.40;99.90;;;;;;5070259;28;20040;-66
2022/01/10 12:21:36;;;;;;;444.95;342.95;;;13.40;99.90;;;;;;5070237;28;20107;-64
2022/01/10 12:24:04;;;;;;;201.25;149.43;;;13.40;99.90;;;;;;5070142;28;20495;-64
2022/01/10 12:26:30;;;;;;;164.07;121.22;;;13.30;99.90;;;;;;5070563;28;20016;-66
2022/01/10 12:28:59;;;;;;;237.05;182.77;;;13.20;99.90;;;;;;5073914;28;20082;-65
2022/01/10 12:31:27;;;;;;;277.95;221.50;;;13.30;99.90;;;;;;5070972;28;20097;-65